Time;durP1;ratioP1;P1;durP2;ratioP2;P2;SDS_P1;SDS_P2;PMS_P1;PMS_P2;Temp;Humidity;BMP_temperature;BMP_pressure;BME280_temperature;BME280_humidity;BME280_pressure;Samples;Min_cycle;Max_cycle;Signal;HPM_P1;HPM_P2
2023/06/03 00:00:50;;;;;;;18.07;6.63;;;;;;;15.70;81.80;101965.03;5156346;28;20453;-88
2023/06/03 00:03:21;;;;;;;10.73;6.50;;;;;;;15.57;82.63;101955.25;5155569;28;20118;-88
2023/06/03 00:05:53;;;;;;;17.37;5.93;;;;;;;15.65;81.70;101940.72;5155407;28;20014;-88
2023/06/03 00:08:24;;;;;;;11.80;6.40;;;;;;;15.41;82.95;101934.25;5156396;28;20031;-88
2023/06/03 00:10:56;;;;;;;15.17;6.60;;;;;;;15.60;83.57;101985.91;5172724;28;20023;-88
2023/06/03 00:13:27;;;;;;;14.27;7.00;;;;;;;15.47;82.02;101938.31;5172127;28;20129;-88
2023/06/03 00:15:59;;;;;;;16.63;6.33;;;;;;;15.43;83.39;101947.38;5155028;28;20027;-88
2023/06/03 00:18:30;;;;;;;13.10;6.13;;;;;;;15.60;82.56;101948.94;5172215;28;20034;-86
2023/06/03 00:21:02;;;;;;;19.10;7.60;;;;;;;15.42;82.32;101914.84;5156062;28;20069;-85
2023/06/03 00:23:39;;;;;;;15.47;6.60;;;;;;;15.74;82.31;101961.28;5156389;28;20034;-87
2023/06/03 00:26:10;;;;;;;15.57;6.57;;;;;;;15.50;82.74;101961.88;5174212;28;20027;-87
2023/06/03 00:28:42;;;;;;;20.63;6.77;;;;;;;15.85;81.19;101989.63;5173954;28;20084;-89
2023/06/03 00:31:14;;;;;;;11.83;6.13;;;;;;;15.62;80.74;101949.69;5158046;28;20034;-88
2023/06/03 00:33:46;;;;;;;17.23;7.10;;;;;;;15.38;81.51;101939.72;5157059;28;20069;-88
2023/06/03 00:36:17;;;;;;;15.97;6.97;;;;;;;15.56;79.97;101942.16;5173972;28;20378;-88
2023/06/03 00:38:54;;;;;;;19.40;6.97;;;;;;;15.64;80.05;101961.00;5156342;28;20741;-88
2023/06/03 00:41:40;;;;;;;17.47;7.20;;;;;;;15.91;78.99;101981.31;5175443;28;20034;-87
2023/06/03 00:44:33;;;;;;;18.00;7.47;;;;;;;15.93;78.93;101992.63;5176433;28;20042;-87
2023/06/03 00:47:05;;;;;;;16.60;8.47;;;;;;;15.40;80.14;101955.47;5156499;28;20494;-86
2023/06/03 00:49:38;;;;;;;17.70;7.10;;;;;;;15.56;79.71;101989.69;5174970;28;20114;-87
2023/06/03 00:52:13;;;;;;;19.57;8.23;;;;;;;15.33;79.49;101953.22;5174721;28;20023;-87
2023/06/03 00:54:47;;;;;;;21.80;7.50;;;;;;;15.12;80.92;101950.13;5157600;28;20027;-87
2023/06/03 00:57:52;;;;;;;;;;;;;;;16.27;73.61;101979.03;5175187;28;20030;-88
2023/06/03 01:00:24;;;;;;;13.48;7.20;;;;;;;15.23;78.50;101947.69;5173250;28;19967;-85
2023/06/03 01:02:56;;;;;;;19.50;7.03;;;;;;;15.32;78.60;101954.19;5157461;28;20019;-87
2023/06/03 01:05:27;;;;;;;19.00;6.80;;;;;;;15.17;78.78;101950.69;5175127;28;20356;-86
2023/06/03 01:08:35;;;;;;;14.83;6.97;;;;;;;15.30;77.42;101926.19;5174843;28;20026;-86
2023/06/03 01:11:20;;;;;;;17.37;8.77;;;;;;;15.26;79.30;101961.59;5158032;28;20502;-87
2023/06/03 01:14:01;;;;;;;13.00;7.10;;;;;;;15.18;78.71;101949.75;5169469;28;20134;-86
2023/06/03 01:16:34;;;;;;;17.40;7.67;;;;;;;15.06;78.69;101955.78;5155878;28;20560;-87
2023/06/03 01:19:56;;;;;;;20.27;7.83;;;;;;;15.60;76.95;101988.56;5155548;28;20030;-87
2023/06/03 01:22:29;;;;;;;16.57;7.80;;;;;;;14.93;78.89;101945.13;5155707;28;20110;-87
2023/06/03 01:25:06;;;;;;;19.00;7.83;;;;;;;15.12;78.57;101961.53;5155372;28;20410;-87
2023/06/03 01:27:39;;;;;;;18.47;8.03;;;;;;;14.82;79.26;101948.44;5155398;28;20368;-87
2023/06/03 01:30:14;;;;;;;20.17;6.60;;;;;;;14.98;78.24;101938.63;5153421;28;20027;-87
2023/06/03 01:32:48;;;;;;;15.20;7.20;;;;;;;15.05;78.79;101985.75;5166920;28;20031;-87
2023/06/03 01:35:20;;;;;;;19.33;6.70;;;;;;;14.97;77.95;101965.13;5151196;28;20663;-86
2023/06/03 01:37:51;;;;;;;15.97;7.03;;;;;;;14.90;78.16;101956.72;5152244;28;20030;-86
2023/06/03 01:40:23;;;;;;;17.00;7.30;;;;;;;14.68;78.97;101947.44;5152039;28;20042;-86
2023/06/03 01:42:54;;;;;;;16.80;6.97;;;;;;;14.91;78.05;101953.13;5151350;28;20059;-86
2023/06/03 01:45:26;;;;;;;15.10;6.37;;;;;;;14.91;78.58;101960.19;5151866;28;20019;-86
2023/06/03 01:47:57;;;;;;;13.87;7.53;;;;;;;14.68;79.09;101930.78;5150497;28;20491;-87
2023/06/03 01:50:28;;;;;;;19.63;7.37;;;;;;;14.66;78.44;101932.66;5166433;28;20051;-86
2023/06/03 01:53:00;;;;;;;12.93;7.30;;;;;;;14.73;78.86;101955.91;5166823;28;20114;-86
2023/06/03 01:55:31;;;;;;;17.20;7.60;;;;;;;14.68;78.57;101946.59;5165693;28;20114;-86
2023/06/03 01:58:06;;;;;;;12.20;6.20;;;;;;;14.78;79.06;101947.75;5152169;28;20592;-87
2023/06/03 02:00:37;;;;;;;11.82;6.80;;;;;;;14.88;78.72;101974.44;5165884;28;20118;-86
2023/06/03 02:03:08;;;;;;;15.27;7.83;;;;;;;14.50;78.58;101920.41;5151003;28;20602;-87
2023/06/03 02:05:45;;;;;;;13.63;7.37;;;;;;;14.61;80.26;101940.81;5155353;28;20042;-87
2023/06/03 02:08:16;;;;;;;14.13;6.60;;;;;;;14.31;79.79;101918.00;5169812;28;20030;-86
2023/06/03 02:10:48;;;;;;;15.90;6.43;;;;;;;14.42;78.95;101931.38;5155058;28;20147;-87
2023/06/03 02:13:20;;;;;;;18.53;7.37;;;;;;;14.36;80.51;101947.56;5171772;28;20054;-86
2023/06/03 02:15:51;;;;;;;11.40;6.20;;;;;;;14.51;80.00;101954.56;5174872;28;20035;-86
2023/06/03 02:18:23;;;;;;;14.60;7.27;;;;;;;14.15;80.63;101921.53;5174245;28;20092;-86
2023/06/03 02:20:54;;;;;;;13.53;6.33;;;;;;;14.51;79.18;101949.28;5157136;28;20034;-86
2023/06/03 02:23:26;;;;;;;13.73;7.43;;;;;;;14.45;79.83;101962.81;5157676;28;20030;-86
2023/06/03 02:25:57;;;;;;;12.53;6.40;;;;;;;14.42;79.29;101939.28;5157240;28;20027;-85
2023/06/03 02:28:29;;;;;;;13.87;6.60;;;;;;;14.46;79.32;101953.13;5174029;28;20697;-85
2023/06/03 02:31:00;;;;;;;15.23;6.67;;;;;;;14.31;79.68;101939.94;5157213;28;20113;-84
2023/06/03 02:33:32;;;;;;;15.40;6.80;;;;;;;14.46;79.70;101964.53;5173230;28;20027;-85
2023/06/03 02:36:04;;;;;;;20.87;7.93;;;;;;;14.50;79.55;101963.41;5157249;28;20036;-86
2023/06/03 02:38:36;;;;;;;15.27;6.53;;;;;;;14.11;80.85;101939.28;5173322;28;20386;-86
2023/06/03 02:41:07;;;;;;;12.30;6.03;;;;;;;14.22;80.30;101940.47;5157054;28;20034;-86
2023/06/03 02:43:40;;;;;;;13.10;5.53;;;;;;;14.43;79.82;101972.63;5157073;28;20386;-85
2023/06/03 02:46:11;;;;;;;14.67;5.93;;;;;;;14.35;80.60;101966.94;5173818;28;20034;-86
2023/06/03 02:48:42;;;;;;;13.40;6.07;;;;;;;14.41;79.65;101956.03;5174142;28;20034;-88
2023/06/03 02:51:14;;;;;;;13.07;5.33;;;;;;;14.20;80.83;101959.00;5174825;28;20031;-87
2023/06/03 02:53:45;;;;;;;12.63;5.77;;;;;;;14.35;79.80;101953.75;5156847;28;20474;-87
2023/06/03 02:56:16;;;;;;;10.73;6.20;;;;;;;14.14;81.75;101975.13;5158337;28;20087;-87
2023/06/03 02:58:50;;;;;;;12.33;6.50;;;;;;;14.22;81.25;101978.19;5175547;28;20027;-86
2023/06/03 03:01:22;;;;;;;13.97;5.97;;;;;;;14.06;81.05;101943.13;5158511;28;20045;-87
2023/06/03 03:04:03;;;;;;;11.90;5.77;;;;;;;14.52;79.63;101974.69;5175511;28;20062;-87
2023/06/03 03:06:57;;;;;;;13.07;6.30;;;;;;;14.50;80.17;101981.84;5174183;28;20219;-86
2023/06/03 03:09:28;;;;;;;11.23;6.83;;;;;;;13.97;81.08;101931.31;5175978;28;20359;-88
2023/06/03 03:11:59;;;;;;;8.50;6.00;;;;;;;13.97;81.46;101957.66;5159325;28;20037;-88
2023/06/03 03:14:35;;;;;;;12.33;6.50;;;;;;;13.89;81.56;101924.69;5158802;28;20071;-87
2023/06/03 03:17:06;;;;;;;13.07;6.20;;;;;;;13.87;82.28;101946.81;5175219;28;20436;-87
2023/06/03 03:19:38;;;;;;;10.30;6.00;;;;;;;14.03;81.09;101952.88;5175997;28;20122;-87
2023/06/03 03:22:09;;;;;;;10.97;6.23;;;;;;;13.98;81.15;101952.31;5159538;28;20515;-87
2023/06/03 03:24:42;;;;;;;11.20;5.90;;;;;;;13.88;82.17;101961.66;5176748;28;20455;-88
2023/06/03 03:27:13;;;;;;;15.73;6.40;;;;;;;13.67;82.76;101946.13;5159441;28;20049;-88
2023/06/03 03:29:45;;;;;;;11.77;6.03;;;;;;;13.61;82.61;101952.59;5158440;28;20022;-88
2023/06/03 03:32:40;;;;;;;10.90;6.03;;;;;;;14.33;80.70;101989.91;5174821;28;20041;-88
2023/06/03 03:35:18;;;;;;;9.67;6.27;;;;;;;13.68;83.36;101926.78;5157705;28;20039;-88
2023/06/03 03:38:06;;;;;;;10.70;5.80;;;;;;;13.75;82.08;101943.91;5157646;28;20141;-86
2023/06/03 03:40:38;;;;;;;15.30;6.70;;;;;;;13.31;84.34;101927.84;5158247;28;20027;-87
2023/06/03 03:43:19;;;;;;;10.30;7.10;;;;;;;13.87;83.09;101986.31;5159092;28;20125;-86
2023/06/03 03:45:50;;;;;;;13.77;6.77;;;;;;;13.43;84.23;101957.91;5176019;28;20420;-86
2023/06/03 03:48:27;;;;;;;14.33;7.23;;;;;;;13.65;83.66;101963.78;5158822;28;20071;-86
2023/06/03 03:50:58;;;;;;;12.60;6.60;;;;;;;13.69;84.15;101994.28;5176415;28;20035;-87
2023/06/03 03:53:34;;;;;;;14.83;6.37;;;;;;;13.48;84.59;101962.91;5159928;28;20030;-87
2023/06/03 03:56:05;;;;;;;13.43;6.77;;;;;;;13.54;83.45;101949.44;5158812;28;20391;-88
2023/06/03 03:58:37;;;;;;;14.40;7.33;;;;;;;13.78;83.98;101995.56;5156664;28;20026;-83
2023/06/03 04:01:18;;;;;;;10.43;7.23;;;;;;;13.76;83.84;101968.47;5173329;28;20027;-83
2023/06/03 04:03:51;;;;;;;13.93;6.10;;;;;;;13.65;83.18;101966.41;5173401;28;20030;-84
2023/06/03 04:06:38;;;;;;;13.43;7.10;;;;;;;13.54;84.21;101935.44;5165072;28;20479;-85
2023/06/03 04:09:14;;;;;;;11.77;6.30;;;;;;;13.90;83.12;101978.22;5173875;28;20034;-85
2023/06/03 04:11:45;;;;;;;12.33;6.93;;;;;;;13.54;83.72;101962.59;5168906;28;20117;-83
2023/06/03 04:14:20;;;;;;;9.50;6.73;;;;;;;13.77;83.90;102002.59;5174094;28;20125;-88
2023/06/03 04:16:56;;;;;;;11.07;7.30;;;;;;;13.58;84.16;101958.00;5166347;28;20034;-89
2023/06/03 04:19:48;;;;;;;11.50;6.97;;;;;;;13.65;83.19;101948.84;5178852;28;20067;-88
2023/06/03 04:22:24;;;;;;;14.53;6.50;;;;;;;13.63;84.91;101984.09;5179139;28;20042;-89
2023/06/03 04:24:58;;;;;;;10.47;5.67;;;;;;;13.67;84.25;102001.41;5181434;28;20108;-89
2023/06/03 04:27:29;;;;;;;13.77;6.07;;;;;;;13.31;84.56;101951.53;5157137;28;20041;-89
2023/06/03 04:30:01;;;;;;;14.40;6.73;;;;;;;13.67;82.90;101982.97;5157403;28;20026;-90
2023/06/03 04:32:57;;;;;;;12.43;7.47;;;;;;;13.97;83.17;102011.19;5174464;28;20026;-90
2023/06/03 04:35:28;;;;;;;15.17;6.27;;;;;;;13.54;84.86;101981.00;5157800;28;20030;-89
2023/06/03 04:38:00;;;;;;;10.87;6.37;;;;;;;13.52;82.99;101958.34;5157390;28;20483;-88
2023/06/03 04:40:37;;;;;;;11.50;5.87;;;;;;;13.66;83.74;101976.88;5156709;28;20068;-89
2023/06/03 04:43:22;;;;;;;11.67;6.63;;;;;;;14.05;83.30;102012.56;5173846;28;20029;-86
2023/06/03 04:45:54;;;;;;;9.30;5.90;;;;;;;13.59;82.90;101964.13;5174225;28;20027;-88
2023/06/03 04:48:26;;;;;;;15.03;6.53;;;;;;;13.73;85.00;102005.50;5156821;28;20157;-88
2023/06/03 04:51:00;;;;;;;9.87;6.60;;;;;;;13.60;83.49;101986.88;5157245;28;21292;-87
2023/06/03 04:53:39;;;;;;;14.00;6.57;;;;;;;13.75;81.37;101948.34;5156120;28;20034;-87
2023/06/03 04:56:12;;;;;;;11.37;5.53;;;;;;;13.72;82.90;101995.91;5155584;28;20129;-88
2023/06/03 04:58:44;;;;;;;9.60;5.80;;;;;;;13.75;81.38;101985.22;5174317;28;20061;-88
2023/06/03 05:01:16;;;;;;;7.93;5.70;;;;;;;13.75;80.99;101975.50;5156718;28;20064;-88
2023/06/03 05:03:48;;;;;;;10.13;5.50;;;;;;;14.00;79.11;101984.66;5256812;28;20035;-87
2023/06/03 05:06:20;;;;;;;12.30;6.37;;;;;;;13.85;80.89;101959.19;5154736;28;20041;-86
2023/06/03 05:08:51;;;;;;;13.17;6.20;;;;;;;14.05;78.82;102007.28;5172969;28;20390;-86
2023/06/03 05:11:22;;;;;;;14.97;5.27;;;;;;;14.14;80.32;101996.22;5148517;28;20118;-85
2023/06/03 05:13:54;;;;;;;10.30;5.77;;;;;;;14.14;78.52;101991.78;5135516;28;20086;-85
2023/06/03 05:16:25;;;;;;;8.97;5.57;;;;;;;14.29;76.61;101994.50;5152544;28;20035;-86
2023/06/03 05:18:56;;;;;;;11.03;5.17;;;;;;;14.14;78.52;101991.78;5150791;28;20117;-87
2023/06/03 05:21:28;;;;;;;7.67;5.03;;;;;;;14.18;76.17;101999.53;5164906;28;20062;-86
2023/06/03 05:23:59;;;;;;;8.73;4.73;;;;;;;14.11;75.12;101985.84;5172178;28;20959;-85
2023/06/03 05:26:31;;;;;;;12.83;5.57;;;;;;;14.15;77.45;101976.84;5172495;28;20034;-86
2023/06/03 05:29:02;;;;;;;9.10;4.97;;;;;;;14.11;75.84;101972.69;5171933;28;20037;-86
2023/06/03 05:31:55;;;;;;;10.40;4.40;;;;;;;14.73;74.74;102013.91;5171049;28;20065;-87
2023/06/03 05:34:26;;;;;;;10.13;5.07;;;;;;;14.38;73.92;101993.94;5154175;28;20034;-85
2023/06/03 05:36:58;;;;;;;11.50;4.43;;;;;;;14.23;75.01;101966.72;5172132;28;20035;-85
2023/06/03 05:39:29;;;;;;;6.27;3.80;;;;;;;14.28;71.64;101974.34;5153981;28;20040;-86
2023/06/03 05:42:04;;;;;;;7.37;4.33;;;;;;;14.62;72.01;102008.44;5154555;28;20069;-86
2023/06/03 05:44:35;;;;;;;10.53;4.23;;;;;;;14.33;73.35;101968.81;5171769;28;20031;-86
2023/06/03 05:47:07;;;;;;;8.87;3.80;;;;;;;14.44;71.97;101973.44;5171860;28;20368;-86
2023/06/03 05:49:40;;;;;;;7.13;4.33;;;;;;;14.70;71.73;101997.44;5154874;28;20084;-86
2023/06/03 05:52:11;;;;;;;8.57;4.70;;;;;;;14.63;69.78;101984.63;5172304;28;20114;-87
2023/06/03 05:54:43;;;;;;;7.57;4.43;;;;;;;14.55;70.39;101970.19;5155699;28;20117;-88
2023/06/03 05:57:14;;;;;;;8.57;4.57;;;;;;;14.67;69.60;101979.16;5172947;28;20463;-87
2023/06/03 05:59:46;;;;;;;8.87;4.37;;;;;;;14.82;71.13;101993.28;5154196;28;20514;-88
2023/06/03 06:02:18;;;;;;;8.57;4.20;;;;;;;15.00;68.93;102010.63;5171814;28;20065;-86
2023/06/03 06:04:50;;;;;;;9.17;4.30;;;;;;;14.88;69.44;102011.34;5170880;28;20030;-85
2023/06/03 06:07:21;;;;;;;8.77;4.37;;;;;;;14.81;66.89;101988.91;5170611;28;20048;-89
2023/06/03 06:09:52;;;;;;;6.27;4.50;;;;;;;14.93;66.96;101996.09;5169583;28;20035;-88
2023/06/03 06:12:24;;;;;;;6.77;3.23;;;;;;;14.99;66.07;101987.81;5153590;28;20084;-88
2023/06/03 06:14:55;;;;;;;6.77;3.50;;;;;;;14.96;66.75;101987.13;5171349;28;20075;-89
2023/06/03 06:17:26;;;;;;;7.93;4.30;;;;;;;15.12;63.59;102002.91;5153558;28;20488;-89
2023/06/03 06:19:59;;;;;;;7.57;3.90;;;;;;;15.16;65.54;101993.00;5153963;28;20121;-89
2023/06/03 06:22:31;;;;;;;8.37;4.10;;;;;;;15.25;64.70;101997.72;5153828;28;20479;-87
2023/06/03 06:25:06;;;;;;;10.63;4.13;;;;;;;15.29;62.79;101980.75;5169549;28;20156;-89
2023/06/03 06:27:37;;;;;;;10.27;3.10;;;;;;;15.43;61.97;101974.59;5154286;28;20034;-87
2023/06/03 06:30:09;;;;;;;7.60;3.13;;;;;;;15.62;62.28;102007.78;5154259;28;20027;-85
2023/06/03 06:32:51;;;;;;;9.20;3.10;;;;;;;15.83;60.89;102017.94;5153479;28;20415;-87
2023/06/03 06:35:29;;;;;;;8.87;3.70;;;;;;;15.52;59.69;101967.03;5154737;28;20506;-85
2023/06/03 06:38:00;;;;;;;9.37;3.73;;;;;;;15.77;58.24;101997.19;5154124;28;20023;-84
2023/06/03 06:40:36;;;;;;;6.93;3.60;;;;;;;16.13;56.15;102002.88;5173741;28;20044;-87
2023/06/03 06:43:16;;;;;;;9.43;3.50;;;;;;;16.37;57.25;102032.13;5156412;28;20038;-88
2023/06/03 06:45:47;;;;;;;7.43;2.90;;;;;;;16.20;55.85;101993.59;5254803;28;20475;-85
2023/06/03 06:48:19;;;;;;;8.07;2.90;;;;;;;16.20;56.94;101975.09;5170544;28;20114;-86
2023/06/03 06:50:53;;;;;;;8.73;3.20;;;;;;;16.78;54.99;102022.38;5163283;28;20035;-84
2023/06/03 06:53:27;;;;;;;6.30;3.00;;;;;;;17.21;52.86;102024.88;5154665;29;20372;-85
2023/06/03 06:56:02;;;;;;;;;;;;;;;17.72;53.84;102028.38;5154146;28;20118;-85
2023/06/03 06:58:38;;;;;;;6.13;2.72;;;;;;;17.39;50.61;101997.09;5174802;28;19918;-85
2023/06/03 07:01:10;;;;;;;6.83;2.63;;;;;;;17.57;50.65;102009.13;5156040;28;20046;-85
2023/06/03 07:03:41;;;;;;;8.00;2.97;;;;;;;17.76;47.30;101992.75;5173677;28;20061;-87
2023/06/03 07:06:12;;;;;;;6.83;3.03;;;;;;;18.05;48.06;102005.69;5174110;28;20033;-87
2023/06/03 07:08:44;;;;;;;7.80;3.53;;;;;;;18.56;46.95;102018.81;5173778;28;20031;-86
2023/06/03 07:11:15;;;;;;;8.33;2.87;;;;;;;18.71;44.65;101987.63;5156375;28;20033;-88
2023/06/03 07:13:49;;;;;;;10.03;2.83;;;;;;;19.15;44.65;101985.13;5173210;28;20055;-86
2023/06/03 07:16:22;;;;;;;6.53;2.28;;;;;;;19.27;42.22;101977.19;5173323;28;20037;-86
2023/06/03 07:18:53;;;;;;;6.97;2.63;;;;;;;19.89;41.07;101972.22;5166008;28;20069;-86
2023/06/03 07:21:25;;;;;;;7.10;2.93;;;;;;;20.33;41.51;101978.47;5187956;28;20054;-86
2023/06/03 07:23:56;;;;;;;5.87;2.63;;;;;;;21.08;38.65;101994.34;5196283;28;20031;-88
2023/06/03 07:26:31;;;;;;;7.10;2.67;;;;;;;21.73;37.29;101985.09;5170930;28;20039;-86
2023/06/03 07:29:03;;;;;;;4.50;2.20;;;;;;;22.39;36.77;101997.94;5157408;28;20027;-87
2023/06/03 07:31:36;;;;;;;8.73;2.70;;;;;;;22.67;35.20;101989.19;5156099;28;20030;-85
2023/06/03 07:34:08;;;;;;;6.00;2.40;;;;;;;23.35;35.29;101997.91;5157529;28;20034;-88
2023/06/03 07:36:39;;;;;;;6.13;2.30;;;;;;;23.79;32.45;102007.94;5176020;28;20451;-86
2023/06/03 07:39:17;;;;;;;5.78;2.05;;;;;;;24.39;32.40;102002.97;5156763;28;20354;-87
2023/06/03 07:41:52;;;;;;;5.55;2.55;;;;;;;24.54;31.14;102002.41;5174773;28;20021;-86
2023/06/03 07:44:44;;;;;;;5.65;2.00;;;;;;;25.81;33.03;102026.91;5261772;28;20419;-83
2023/06/03 07:47:17;;;;;;;7.22;2.17;;;;;;;25.84;29.19;102005.97;5261175;28;20024;-84
2023/06/03 07:49:49;;;;;;;5.40;2.15;;;;;;;25.82;28.43;101999.94;5188071;28;20035;-85
2023/06/03 07:52:21;;;;;;;9.10;2.38;;;;;;;26.26;28.38;102014.03;5171925;28;20019;-85
2023/06/03 07:54:53;;;;;;;7.75;2.30;;;;;;;26.49;27.16;102005.31;5172053;28;20106;-84
2023/06/03 07:57:24;;;;;;;9.20;2.10;;;;;;;26.69;26.95;102007.59;5155981;28;20138;-83
2023/06/03 07:59:56;;;;;;;6.28;2.42;;;;;;;27.00;24.90;101998.75;5169862;28;20015;-85
2023/06/03 08:02:27;;;;;;;5.70;2.00;;;;;;;27.50;24.41;102030.84;5134066;28;20077;-87
2023/06/03 08:05:00;;;;;;;3.08;1.50;;;;;;;27.16;24.44;102022.09;5135616;29;20755;-88
2023/06/03 08:07:32;;;;;;;4.38;1.77;;;;;;;27.82;24.11;102035.41;5152655;28;20027;-87
2023/06/03 08:10:04;;;;;;;4.43;1.42;;;;;;;27.91;23.65;102042.38;5135452;28;20023;-87
2023/06/03 08:12:35;;;;;;;8.32;1.45;;;;;;;28.28;23.49;102045.28;5159849;28;20034;-88
2023/06/03 08:15:19;;;;;;;6.75;1.42;;;;;;;28.35;23.24;102005.88;5154618;28;20117;-87
2023/06/03 08:17:50;;;;;;;5.97;1.58;;;;;;;28.74;22.69;102036.28;5171191;28;20037;-88
2023/06/03 08:20:28;;;;;;;5.75;1.88;;;;;;;28.58;23.92;102036.44;5172267;28;20031;-89
2023/06/03 08:23:00;;;;;;;3.00;1.42;;;;;;;28.68;21.74;102014.66;5156130;28;20019;-90
2023/06/03 08:25:31;;;;;;;4.00;1.23;;;;;;;28.89;21.57;101997.69;5172360;28;20038;-90
2023/06/03 08:28:02;;;;;;;5.32;1.40;;;;;;;28.82;22.29;102002.16;5172311;28;20030;-88
2023/06/03 08:30:34;;;;;;;2.90;1.40;;;;;;;29.62;20.97;102023.09;5154348;28;20027;-89
2023/06/03 08:33:05;;;;;;;5.10;1.38;;;;;;;30.10;20.48;102013.56;5172401;28;20101;-87
2023/06/03 08:35:36;;;;;;;2.30;1.30;;;;;;;29.36;19.74;102013.63;5173048;28;20022;-86
2023/06/03 08:38:08;;;;;;;6.20;1.85;;;;;;;30.15;19.95;102011.09;5154563;28;20027;-85
2023/06/03 08:40:45;;;;;;;2.33;1.30;;;;;;;30.52;20.12;102026.34;5172607;28;20134;-86
2023/06/03 08:43:17;;;;;;;3.85;1.20;;;;;;;30.34;19.76;101997.97;5144843;28;20038;-86
2023/06/03 08:45:55;;;;;;;7.50;1.38;;;;;;;31.00;20.39;102032.91;5157619;28;20034;-86
2023/06/03 08:51:56;;;;;;;8.13;1.55;;;;;;;30.62;19.14;102018.72;5181634;28;20035;-87
2023/06/03 08:54:34;;;;;;;5.35;1.30;;;;;;;31.35;19.02;102013.84;5172779;28;20037;-88
2023/06/03 08:57:18;;;;;;;6.90;1.45;;;;;;;31.15;19.03;102041.72;5145573;28;20023;-89
2023/06/03 08:59:52;;;;;;;10.27;1.88;;;;;;;31.07;18.94;102022.91;5160140;28;20057;-89
2023/06/03 09:02:27;;;;;;;4.90;1.15;;;;;;;31.52;18.69;102019.75;5139790;29;20101;-89
2023/06/03 09:05:03;;;;;;;4.00;1.23;;;;;;;31.97;17.81;102014.81;5119845;28;20031;-89
2023/06/03 09:07:35;;;;;;;3.17;1.25;;;;;;;30.99;18.22;102006.88;5163234;28;20031;-90
2023/06/03 09:10:08;;;;;;;4.78;1.20;;;;;;;31.33;18.22;102024.03;5141380;28;20027;-88
2023/06/03 09:12:40;;;;;;;2.45;1.15;;;;;;;32.15;17.83;102016.94;5142139;28;20023;-89
2023/06/03 09:15:15;;;;;;;5.95;1.58;;;;;;;31.84;18.05;102005.63;5173645;28;20057;-87
2023/06/03 09:17:49;;;;;;;9.00;1.30;;;;;;;31.99;18.40;102007.34;5150986;28;20027;-88
2023/06/03 09:20:20;;;;;;;3.53;1.30;;;;;;;31.93;17.13;102002.72;5158139;28;20019;-88
2023/06/03 09:22:55;;;;;;;5.93;1.50;;;;;;;32.30;17.08;102003.16;5173822;28;20034;-86
2023/06/03 09:25:28;;;;;;;6.05;1.10;;;;;;;32.93;16.85;102010.91;5173129;28;20451;-87
2023/06/03 09:28:04;;;;;;;2.88;1.17;;;;;;;33.00;16.63;102011.72;5154934;28;20462;-86
2023/06/03 09:30:35;;;;;;;5.53;1.52;;;;;;;32.93;16.66;102005.50;5170858;28;20920;-84
2023/06/03 09:33:06;;;;;;;6.22;1.10;;;;;;;33.59;15.90;101993.66;5156288;28;20027;-84
2023/06/03 09:35:38;;;;;;;5.07;1.40;;;;;;;32.41;15.09;102000.84;5172384;28;20061;-85
2023/06/03 09:38:09;;;;;;;3.42;1.13;;;;;;;33.12;15.81;102009.19;5171984;28;20102;-84
2023/06/03 09:40:43;;;;;;;1.95;1.00;;;;;;;33.33;16.23;101993.63;5147793;28;20035;-86
2023/06/03 09:43:16;;;;;;;2.72;1.05;;;;;;;34.11;14.72;102017.91;5145536;28;20028;-86
2023/06/03 09:45:47;;;;;;;4.47;1.00;;;;;;;33.71;14.98;101983.78;5165664;28;20435;-84
2023/06/03 09:48:25;;;;;;;4.93;1.00;;;;;;;33.71;16.08;102021.81;5196365;28;20093;-84
2023/06/03 09:50:57;;;;;;;5.75;1.40;;;;;;;33.11;15.55;101998.56;5152689;28;20031;-85
2023/06/03 09:53:29;;;;;;;5.57;1.00;;;;;;;34.24;15.09;101983.53;5149816;28;20022;-86
2023/06/03 09:56:29;;;;;;;2.70;0.82;;;;;;;34.43;14.80;102011.56;5167625;28;20054;-86
2023/06/03 09:59:15;;;;;;;3.42;1.25;;;;;;;34.09;15.95;102021.94;5165958;28;20119;-86
2023/06/03 10:01:47;;;;;;;2.40;1.60;;;;;;;33.55;14.41;102013.09;5155258;28;20023;-86
2023/06/03 10:04:36;;;;;;;7.85;1.45;;;;;;;33.81;14.81;102015.88;5178347;28;20030;-86
2023/06/03 10:07:17;;;;;;;7.20;1.30;;;;;;;34.07;14.82;101994.97;5169593;28;20501;-86
2023/06/03 10:09:49;;;;;;;7.72;1.17;;;;;;;34.04;14.23;102012.56;5164458;28;20031;-87
2023/06/03 10:12:33;;;;;;;5.35;1.42;;;;;;;34.54;14.63;101990.13;5171506;28;20038;-87
2023/06/03 10:15:04;;;;;;;4.50;1.30;;;;;;;34.54;13.59;102012.72;5171760;28;20054;-87
2023/06/03 10:17:44;;;;;;;4.17;1.00;;;;;;;35.13;14.23;101997.78;5155602;28;20030;-90
2023/06/03 10:20:38;;;;;;;4.28;1.23;;;;;;;35.36;14.02;101996.22;5156158;28;20027;-87
2023/06/03 10:23:11;;;;;;;4.13;1.23;;;;;;;34.38;13.13;102044.06;5181168;28;20031;-87
2023/06/03 10:26:16;;;;;;;3.92;1.15;;;;;;;36.03;13.71;102021.56;5179966;28;20027;-89
2023/06/03 10:28:52;;;;;;;4.18;1.02;;;;;;;35.42;13.48;102014.34;5155842;28;20228;-90
2023/06/03 10:31:27;;;;;;;3.75;0.90;;;;;;;35.20;12.60;101997.69;5163861;28;20030;-87
2023/06/03 10:34:01;;;;;;;1.75;0.90;;;;;;;35.17;13.06;101988.09;5174381;28;20030;-87
2023/06/03 10:36:32;;;;;;;;;;;;;;;37.55;13.58;102032.84;5183513;28;20027;-86
2023/06/03 10:39:09;;;;;;;4.78;1.10;;;;;;;35.83;13.40;102013.75;5213466;28;19925;-87
2023/06/03 10:41:42;;;;;;;3.00;1.15;;;;;;;36.52;12.72;102020.50;5173213;28;20084;-87
2023/06/03 10:44:13;;;;;;;;;;;;;;;37.92;13.92;102026.88;5176334;28;20026;-86
2023/06/03 10:46:51;;;;;;;2.67;1.10;;;;;;;35.96;12.82;102010.78;5157594;28;20078;-87
2023/06/03 10:49:26;;;;;;;5.15;1.20;;;;;;;35.54;12.26;101976.25;5175511;28;20666;-88
2023/06/03 10:52:22;;;;;;;2.88;1.00;;;;;;;35.65;13.93;102028.25;5175955;28;20034;-88
2023/06/03 10:55:12;;;;;;;5.22;0.90;;;;;;;35.13;12.87;102035.88;5157605;28;20479;-87
2023/06/03 10:57:57;;;;;;;7.63;1.05;;;;;;;34.48;13.36;101992.69;5174682;28;20030;-88
2023/06/03 11:00:57;;;;;;;4.90;1.30;;;;;;;35.18;13.69;102033.31;5171533;28;20852;-89
2023/06/03 11:03:34;;;;;;;3.72;0.85;;;;;;;33.61;13.12;102026.88;5158383;28;20748;-89
2023/06/03 11:06:36;;;;;;;4.25;0.98;;;;;;;34.95;13.52;102018.53;5161620;28;20050;-90
2023/06/03 11:09:09;;;;;;;1.98;0.77;;;;;;;34.14;12.76;102035.69;5153611;28;20505;-88
2023/06/03 11:11:52;;;;;;;2.85;0.90;;;;;;;34.20;13.68;102015.78;5163604;28;20498;-87
2023/06/03 11:14:24;;;;;;;;;;;;;;;36.14;13.59;102017.19;5174141;28;20082;-89
2023/06/03 11:16:58;;;;;;;3.95;0.80;;;;;;;35.11;12.68;102010.78;5175729;28;19914;-87
2023/06/03 11:19:30;;;;;;;2.92;0.68;;;;;;;35.56;12.19;101995.06;5143770;28;20026;-88
2023/06/03 11:22:07;;;;;;;2.07;0.60;;;;;;;35.41;12.21;102004.53;5171205;28;20259;-89
2023/06/03 11:24:54;;;;;;;1.23;0.63;;;;;;;35.44;13.53;102001.34;5210436;28;20105;-91
2023/06/03 11:27:45;;;;;;;2.00;0.73;;;;;;;35.32;13.33;102022.25;5169305;28;20038;-92
2023/06/03 11:30:55;;;;;;;1.58;0.80;;;;;;;35.50;13.51;102009.63;5127018;28;20039;-91
2023/06/03 11:34:06;;;;;;;3.85;1.10;;;;;;;35.09;13.52;102023.78;5121132;29;20040;-90
2023/06/03 11:36:53;;;;;;;4.65;0.93;;;;;;;34.69;13.45;102019.66;5114070;28;20028;-91
2023/06/03 11:39:52;;;;;;;2.28;1.20;;;;;;;33.85;13.47;101983.66;5100968;29;20044;-90
2023/06/03 11:42:25;;;;;;;4.70;1.20;;;;;;;33.77;13.25;102015.50;5128525;28;20484;-85
2023/06/03 11:45:24;;;;;;;1.92;0.80;;;;;;;33.76;14.34;102018.41;5131609;28;20031;-87
2023/06/03 11:48:10;;;;;;;2.25;1.20;;;;;;;33.75;13.48;102019.47;5157833;29;20035;-86
2023/06/03 11:50:56;;;;;;;4.95;1.10;;;;;;;33.32;14.29;101973.78;5140793;28;20069;-89
2023/06/03 11:53:43;;;;;;;2.10;0.70;;;;;;;33.98;14.62;102021.59;5157182;28;20486;-89
2023/06/03 11:56:14;;;;;;;3.17;1.00;;;;;;;33.54;14.34;101984.31;5153648;29;20031;-89
2023/06/03 11:58:54;;;;;;;4.93;1.00;;;;;;;32.94;14.49;101958.31;5152019;28;20031;-89
2023/06/03 12:01:36;;;;;;;4.60;0.95;;;;;;;33.97;14.23;101991.94;5157589;28;20046;-89
2023/06/03 12:04:19;;;;;;;3.63;0.95;;;;;;;33.81;14.21;101996.84;5158161;28;20023;-90